createdAt,value
2018-05-07T00:01:38.021Z,"    0"
2018-05-07T00:06:33.896Z,"    0"
2018-05-07T00:11:29.775Z,"    0"
2018-05-07T00:16:25.425Z,"    0"
2018-05-07T00:21:25.109Z,"    0"
2018-05-07T00:26:20.216Z,"    0"
2018-05-07T00:31:16.964Z,"    0"
2018-05-07T00:36:17.583Z,"    0"
2018-05-07T00:41:12.353Z,"    0"
2018-05-07T00:46:08.169Z,"    0"
2018-05-07T00:51:08.843Z,"    0"
2018-05-07T00:56:07.639Z,"    0"
2018-05-07T01:01:02.726Z,"    0"
2018-05-07T01:05:58.853Z,"    0"
2018-05-07T01:10:55.854Z,"    0"
2018-05-07T01:15:51.216Z,"    0"
2018-05-07T01:20:50.988Z,"    0"
2018-05-07T01:25:45.896Z,"    0"
2018-05-07T01:30:45.408Z,"    0"
2018-05-07T01:35:40.788Z,"    0"
2018-05-07T01:40:41.828Z,"    0"
2018-05-07T01:45:36.549Z,"    0"
2018-05-07T01:50:33.396Z,"    0"
2018-05-07T01:55:32.909Z,"    0"
2018-05-07T02:00:29.275Z,"    0"
2018-05-07T02:05:24.796Z,"    0"
2018-05-07T02:10:20.277Z,"    0"
2018-05-07T02:15:17.143Z,"    0"
2018-05-07T02:20:16.347Z,"    0"
2018-05-07T02:25:15.118Z,"    0"
2018-05-07T02:30:14.035Z,"    0"
2018-05-07T02:35:08.943Z,"    0"
2018-05-07T02:40:05.310Z,"    0"
2018-05-07T02:45:01.214Z,"    0"
2018-05-07T02:49:57.015Z,"    0"
2018-05-07T02:54:53.101Z,"    0"
2018-05-07T02:59:50.117Z,"    0"
2018-05-07T03:04:49.499Z,"    0"
2018-05-07T03:09:47.983Z,"    0"
2018-05-07T03:14:46.959Z,"    0"
2018-05-07T03:19:41.722Z,"    0"
2018-05-07T03:24:37.470Z,"    0"
2018-05-07T03:29:34.280Z,"    0"
2018-05-07T03:34:30.317Z,"    0"
2018-05-07T03:39:27.205Z,"    0"
2018-05-07T03:44:22.639Z,"    5"
2018-05-07T03:49:18.772Z,"    5"
2018-05-07T03:54:14.506Z,"   10"
2018-05-07T03:59:14.326Z,"   10"
2018-05-07T04:04:09.241Z,"   15"
2018-05-07T04:09:05.363Z,"   20"
2018-05-07T04:14:05.180Z,"   25"
2018-05-07T04:19:04.179Z,"   30"
2018-05-07T04:24:00.248Z,"   35"
2018-05-07T04:28:55.924Z,"   45"
2018-05-07T04:33:52.830Z,"   70"
2018-05-07T04:38:48.713Z,"   75"
2018-05-07T04:43:44.861Z,"   65"
2018-05-07T04:48:40.916Z,"   70"
2018-05-07T04:53:41.085Z,"   75"
2018-05-07T04:58:36.084Z,"   80"
2018-05-07T05:03:32.028Z,"   80"
2018-05-07T05:08:28.373Z,"   80"
2018-05-07T05:13:25.007Z,"   80"
2018-05-07T05:18:21.616Z,"   80"
2018-05-07T05:23:17.692Z,"   85"
2018-05-07T05:28:13.569Z,"   85"
2018-05-07T05:33:09.700Z,"   90"
2018-05-07T05:38:06.690Z,"   95"
2018-05-07T05:43:02.515Z,"   95"
2018-05-07T05:48:03.629Z,"   95"
2018-05-07T05:52:59.961Z,"  100"
2018-05-07T05:57:59.527Z,"  100"
2018-05-07T06:02:58.224Z,"   95"
2018-05-07T06:07:53.634Z,"  105"
2018-05-07T06:12:49.974Z,"  100"
2018-05-07T06:17:49.740Z,"  100"
2018-05-07T06:22:44.835Z,"  100"
2018-05-07T06:27:44.859Z,"   95"
2018-05-07T06:32:40.892Z,"  100"
2018-05-07T06:37:36.556Z,"  110"
2018-05-07T06:42:32.654Z,"  170"
2018-05-07T06:47:28.695Z,"  130"
2018-05-07T06:52:24.892Z,"  105"
2018-05-07T06:57:20.450Z,"  115"
2018-05-07T07:02:21.584Z,"  105"
2018-05-07T07:07:16.521Z,"  120"
2018-05-07T07:12:13.293Z,"  110"
2018-05-07T07:17:08.856Z,"  120"
2018-05-07T07:22:04.989Z,"  145"
2018-05-07T07:27:05.981Z,"  165"
2018-05-07T07:32:01.075Z,"  120"
2018-05-07T07:36:57.145Z,"  190"
2018-05-07T07:41:53.692Z,"  405"
2018-05-07T07:46:50.518Z,"  265"
2018-05-07T07:51:47.751Z," 1105"
2018-05-07T07:56:47.269Z," 1275"
2018-05-07T08:01:45.715Z," 1190"
2018-05-07T08:06:43.357Z," 1305"
2018-05-07T08:11:40.675Z," 1130"
2018-05-07T08:16:38.172Z," 1310"
2018-05-07T08:21:38.783Z," 1340"
2018-05-07T08:26:35.383Z," 1500"
2018-05-07T08:31:32.212Z," 1460"
2018-05-07T08:36:29.409Z," 1455"
2018-05-07T08:41:25.482Z," 1530"
2018-05-07T08:46:24.620Z,"  575"
2018-05-07T08:51:18.598Z,"  325"
2018-05-07T08:56:16.657Z,"  555"
2018-05-07T09:01:11.701Z,"  190"
2018-05-07T09:06:07.238Z,"  150"
2018-05-07T09:11:02.210Z,"  260"
2018-05-07T09:15:58.823Z," 1460"
2018-05-07T09:20:58.394Z," 1640"
2018-05-07T09:25:56.715Z," 1840"
2018-05-07T09:30:54.102Z," 1760"
2018-05-07T09:35:52.130Z," 1765"
2018-05-07T09:40:53.469Z," 1260"
2018-05-07T09:45:50.124Z," 1475"
2018-05-07T09:50:46.607Z," 1760"
2018-05-07T09:55:46.570Z," 1805"
2018-05-07T10:00:41.784Z," 1890"
2018-05-07T10:05:38.248Z," 1785"
2018-05-07T10:10:34.943Z," 1660"
2018-05-07T10:15:30.919Z," 1780"
2018-05-07T10:20:30.996Z," 1850"
2018-05-07T10:25:30.276Z," 1935"
2018-05-07T10:30:26.291Z," 1790"
2018-05-07T10:35:22.822Z," 1835"
2018-05-07T10:40:20.523Z," 1605"
2018-05-07T10:45:16.296Z," 1840"
2018-05-07T10:50:13.570Z," 1845"
2018-05-07T10:55:13.592Z," 1900"
2018-05-07T11:00:14.251Z," 1795"
2018-05-07T11:05:09.880Z," 1800"
2018-05-07T11:10:05.731Z," 1890"
2018-05-07T11:15:06.223Z," 1770"
2018-05-07T11:20:04.983Z," 1925"
2018-05-07T11:25:00.907Z," 2025"
2018-05-07T11:29:57.829Z," 1990"
2018-05-07T11:34:57.817Z," 2065"
2018-05-07T11:39:53.906Z," 2070"
2018-05-07T11:44:50.560Z," 1945"
2018-05-07T11:49:48.184Z," 1795"
2018-05-07T11:54:44.938Z," 1995"
2018-05-07T11:59:40.725Z," 2030"
2018-05-07T12:04:36.257Z," 1820"
2018-05-07T12:09:32.293Z," 2100"
2018-05-07T12:14:32.489Z," 2060"
2018-05-07T12:19:27.416Z," 2020"
2018-05-07T12:24:27.615Z," 1845"
2018-05-07T12:29:22.591Z," 1905"
2018-05-07T12:34:23.049Z," 1860"
2018-05-07T12:39:17.644Z,"  730"
2018-05-07T12:44:13.542Z,"  510"
2018-05-07T12:49:11.127Z," 1585"
2018-05-07T12:54:08.960Z," 1210"
2018-05-07T12:59:05.751Z," 1945"
2018-05-07T13:04:06.310Z," 1845"
2018-05-07T13:09:01.974Z," 1505"
2018-05-07T13:13:57.918Z," 2035"
2018-05-07T13:18:57.695Z," 1855"
2018-05-07T13:23:56.444Z," 1955"
2018-05-07T13:28:51.740Z," 1765"
2018-05-07T13:33:47.571Z," 1545"
2018-05-07T13:38:44.237Z," 1415"
2018-05-07T13:43:39.144Z," 1085"
2018-05-07T13:48:35.273Z,"  240"
2018-05-07T13:53:30.531Z,"  635"
2018-05-07T13:58:25.945Z,"  190"
2018-05-07T14:03:21.178Z,"  420"
2018-05-07T14:08:20.731Z,"  275"
2018-05-07T14:13:15.727Z,"  295"
2018-05-07T14:18:12.326Z,"  205"
2018-05-07T14:23:09.126Z,"  110"
2018-05-07T14:28:08.909Z,"  105"
2018-05-07T14:33:07.954Z,"  105"
2018-05-07T14:38:06.885Z,"  105"
2018-05-07T14:43:01.960Z,"  100"
2018-05-07T14:47:57.794Z,"  100"
2018-05-07T14:52:53.744Z,"  100"
2018-05-07T14:57:49.606Z,"   95"
2018-05-07T15:02:49.424Z,"   95"
2018-05-07T15:07:45.424Z,"   95"
2018-05-07T15:12:40.976Z,"   95"
2018-05-07T15:17:37.158Z,"   95"
2018-05-07T15:22:36.799Z,"   90"
2018-05-07T15:27:31.934Z,"   90"
2018-05-07T15:32:27.946Z,"   90"
2018-05-07T15:37:27.901Z,"   90"
2018-05-07T15:42:26.948Z,"   90"
2018-05-07T15:47:26.491Z,"   85"
2018-05-07T15:52:21.726Z,"   85"
2018-05-07T15:57:22.411Z,"   85"
2018-05-07T16:02:17.112Z,"   85"
2018-05-07T16:07:13.329Z,"   85"
2018-05-07T16:12:09.601Z,"   85"
2018-05-07T16:17:09.384Z,"   80"
2018-05-07T16:22:05.148Z,"   80"
2018-05-07T16:27:01.260Z,"   85"
2018-05-07T16:32:01.264Z,"   80"
2018-05-07T16:37:00.397Z,"   80"
2018-05-07T16:41:59.463Z,"   75"
2018-05-07T16:46:58.352Z,"   75"
2018-05-07T16:51:54.912Z,"   75"
2018-05-07T16:56:50.670Z,"   75"
2018-05-07T17:01:46.576Z,"   70"
2018-05-07T17:06:46.458Z,"   70"
2018-05-07T17:11:46.404Z,"   70"
2018-05-07T17:21:42.020Z,"   65"
2018-05-07T17:26:41.555Z,"   65"
2018-05-07T17:31:40.946Z,"   60"
2018-05-07T17:36:39.875Z,"   60"
2018-05-07T17:41:36.266Z,"   55"
2018-05-07T17:46:33.358Z,"   55"
2018-05-07T17:51:28.768Z,"   50"
2018-05-07T17:56:28.721Z,"   50"
2018-05-07T18:01:23.802Z,"   45"
2018-05-07T18:06:23.421Z,"   40"
2018-05-07T18:11:19.792Z,"   40"
2018-05-07T18:16:15.346Z,"   40"
2018-05-07T18:21:15.241Z,"   35"
2018-05-07T18:26:10.267Z,"   30"
2018-05-07T18:31:10.262Z,"   25"
2018-05-07T18:36:06.316Z,"   20"
2018-05-07T18:41:05.822Z,"   15"
2018-05-07T18:46:00.669Z,"   15"
2018-05-07T18:55:57.012Z,"    5"
2018-05-07T19:00:56.575Z,"    5"
2018-05-07T19:05:52.521Z,"    0"
2018-05-07T19:10:49.127Z,"    0"
2018-05-07T19:15:44.710Z,"    0"
2018-05-07T19:20:40.519Z,"    0"
2018-05-07T19:25:40.248Z,"    0"
2018-05-07T19:30:36.052Z,"    0"
2018-05-07T19:35:32.667Z,"    0"
2018-05-07T19:40:28.177Z,"    0"
2018-05-07T19:45:27.874Z,"    0"
2018-05-07T19:50:22.773Z,"    0"
2018-05-07T19:55:22.393Z,"    0"
2018-05-07T20:00:17.239Z,"    0"
2018-05-07T20:05:13.264Z,"    0"
2018-05-07T20:10:13.038Z,"    0"
2018-05-07T20:15:13.612Z,"    0"
2018-05-07T20:20:13.252Z,"    0"
2018-05-07T20:25:11.941Z,"    0"
2018-05-07T20:30:06.851Z,"    0"
2018-05-07T20:35:02.616Z,"    0"
2018-05-07T20:40:02.427Z,"    0"
2018-05-07T20:44:57.327Z,"    0"
2018-05-07T20:49:53.417Z,"    0"
2018-05-07T20:54:53.144Z,"    0"
2018-05-07T20:59:48.389Z,"    0"
2018-05-07T21:04:49.316Z,"    0"
2018-05-07T21:09:43.965Z,"    0"
2018-05-07T21:14:40.099Z,"    0"
2018-05-07T21:19:39.639Z,"    0"
2018-05-07T21:24:34.905Z,"    0"
2018-05-07T21:29:35.548Z,"    0"
2018-05-07T21:34:31.294Z,"    0"
2018-05-07T21:39:26.669Z,"    0"
2018-05-07T21:44:22.195Z,"    0"
2018-05-07T21:49:19.157Z,"    0"
2018-05-07T21:54:14.673Z,"    0"
2018-05-07T21:59:10.709Z,"    0"
2018-05-07T22:04:07.573Z,"    0"
2018-05-07T22:09:04.650Z,"    0"
2018-05-07T22:14:01.319Z,"    0"
2018-05-07T22:19:00.859Z,"    0"
2018-05-07T22:23:59.601Z,"    0"
2018-05-07T22:28:55.457Z,"    0"
2018-05-07T22:33:51.285Z,"    0"
2018-05-07T22:38:47.051Z,"    0"
2018-05-07T22:43:43.886Z,"    0"
2018-05-07T22:48:39.514Z,"    0"
2018-05-07T22:53:36.359Z,"    0"
2018-05-07T22:58:31.953Z,"    0"
2018-05-07T23:03:27.713Z,"    0"
2018-05-07T23:08:25.066Z,"    0"
2018-05-07T23:13:20.581Z,"    0"
2018-05-07T23:18:16.572Z,"    0"
2018-05-07T23:23:16.308Z,"    0"
2018-05-07T23:28:15.505Z,"    0"
2018-05-07T23:33:15.482Z,"    0"
2018-05-07T23:38:14.216Z,"    0"
2018-05-07T23:43:09.010Z,"    0"
2018-05-07T23:48:04.787Z,"    0"
2018-05-07T23:53:01.239Z,"    0"
2018-05-07T23:58:00.824Z,"    0"
